createdAt,value
2023-02-11T00:01:12.004Z,16.77
2023-02-11T00:03:39.585Z,16.47
2023-02-11T00:06:11.196Z,16.93
2023-02-11T00:08:39.177Z,16.73
2023-02-11T00:11:06.625Z,19.47
2023-02-11T00:13:34.308Z,17.43
2023-02-11T00:16:06.806Z,23.97
2023-02-11T00:18:34.274Z,30.40
2023-02-11T00:21:01.600Z,25.80
2023-02-11T00:23:28.857Z,24.73
2023-02-11T00:25:56.073Z,26.00
2023-02-11T00:28:23.420Z,23.23
2023-02-11T00:30:57.839Z,20.97
2023-02-11T00:33:25.489Z,19.13
2023-02-11T00:35:53.064Z,17.20
2023-02-11T00:38:20.475Z,16.87
2023-02-11T00:40:47.768Z,17.37
2023-02-11T00:43:15.110Z,17.57
2023-02-11T00:45:42.550Z,16.87
2023-02-11T00:48:09.930Z,17.70
2023-02-11T00:50:37.229Z,16.63
2023-02-11T00:53:04.486Z,16.87
2023-02-11T00:55:31.816Z,17.17
2023-02-11T00:58:00.105Z,18.10
2023-02-11T01:00:27.700Z,16.73
2023-02-11T01:02:55.307Z,16.77
2023-02-11T01:05:23.117Z,15.67
2023-02-11T01:07:50.523Z,16.73
2023-02-11T01:10:17.910Z,17.53
2023-02-11T01:12:45.231Z,16.57
2023-02-11T01:15:14.470Z,18.27
2023-02-11T01:17:41.804Z,18.40
2023-02-11T01:20:09.867Z,18.63
2023-02-11T01:22:39.575Z,21.70
2023-02-11T01:25:07.637Z,21.30
2023-02-11T01:27:35.442Z,22.53
2023-02-11T01:30:02.730Z,23.93
2023-02-11T01:32:29.953Z,18.40
2023-02-11T01:34:57.552Z,21.03
2023-02-11T01:37:24.835Z,21.07
2023-02-11T01:39:52.174Z,18.63
2023-02-11T01:42:21.127Z,19.70
2023-02-11T01:44:52.277Z,19.50
2023-02-11T01:47:20.278Z,17.33
2023-02-11T01:49:53.264Z,17.10
2023-02-11T01:52:21.686Z,16.77
2023-02-11T01:55:10.327Z,15.53
2023-02-11T01:57:39.192Z,16.00
2023-02-11T02:00:09.595Z,15.67
2023-02-11T02:02:42.901Z,15.10
2023-02-11T02:05:29.076Z,14.33
2023-02-11T02:08:15.209Z,15.70
2023-02-11T02:10:44.476Z,13.53
2023-02-11T02:13:12.241Z,14.33
2023-02-11T02:15:40.935Z,13.33
2023-02-11T02:18:08.352Z,14.03
2023-02-11T02:20:35.632Z,14.33
2023-02-11T02:23:02.990Z,13.50
2023-02-11T02:25:36.486Z,14.37
2023-02-11T02:28:03.817Z,12.77
2023-02-11T02:30:46.570Z,13.33
2023-02-11T02:33:26.347Z,15.20
2023-02-11T02:35:59.874Z,15.40
2023-02-11T02:38:36.492Z,17.03
2023-02-11T02:41:17.422Z,15.30
2023-02-11T02:43:46.535Z,16.10
2023-02-11T02:46:19.962Z,16.83
2023-02-11T02:48:49.671Z,15.93
2023-02-11T02:51:22.927Z,16.93
2023-02-11T02:53:53.528Z,16.47
2023-02-11T02:56:20.804Z,17.87
2023-02-11T02:59:14.651Z,17.17
2023-02-11T03:01:51.083Z,17.30
2023-02-11T03:04:22.304Z,17.23
2023-02-11T03:07:10.269Z,16.50
2023-02-11T03:09:44.647Z,16.60
2023-02-11T03:12:13.544Z,17.50
2023-02-11T03:14:42.209Z,17.20
2023-02-11T03:17:10.786Z,15.60
2023-02-11T03:19:43.380Z,15.13
2023-02-11T03:22:25.715Z,15.43
2023-02-11T03:24:53.067Z,15.23
2023-02-11T03:27:20.345Z,15.70
2023-02-11T03:29:49.535Z,15.03
2023-02-11T03:32:35.000Z,14.83
2023-02-11T03:35:10.926Z,15.50
2023-02-11T03:37:41.363Z,14.50
2023-02-11T03:40:08.948Z,16.50
2023-02-11T03:42:43.456Z,15.20
2023-02-11T03:45:13.102Z,15.90
2023-02-11T03:47:42.775Z,15.83
2023-02-11T03:50:11.746Z,15.97
2023-02-11T03:52:39.588Z,15.93
2023-02-11T03:55:08.830Z,14.70
2023-02-11T03:57:36.221Z,15.13
2023-02-11T04:00:03.570Z,15.87
2023-02-11T04:02:32.904Z,15.77
2023-02-11T04:05:00.247Z,15.90
2023-02-11T04:07:27.844Z,14.87
2023-02-11T04:09:55.206Z,15.37
2023-02-11T04:12:22.587Z,14.87
2023-02-11T04:14:52.216Z,14.97
2023-02-11T04:17:19.871Z,16.43
2023-02-11T04:19:47.368Z,16.83
2023-02-11T04:22:14.675Z,15.63
2023-02-11T04:24:44.085Z,15.67
2023-02-11T04:27:11.366Z,15.60
2023-02-11T04:29:38.658Z,15.97
2023-02-11T04:32:06.236Z,15.87
2023-02-11T04:34:33.605Z,15.57
2023-02-11T04:37:00.923Z,16.30
2023-02-11T04:39:28.257Z,15.30
2023-02-11T04:41:55.508Z,17.27
2023-02-11T04:44:23.018Z,16.07
2023-02-11T04:46:50.346Z,16.33
2023-02-11T04:49:20.800Z,18.37
2023-02-11T04:51:49.500Z,17.13
2023-02-11T04:54:17.518Z,18.07
2023-02-11T04:56:45.126Z,17.17
2023-02-11T04:59:13.346Z,18.27
2023-02-11T05:01:40.937Z,17.23
2023-02-11T05:04:08.431Z,21.20
2023-02-11T05:06:35.725Z,19.47
2023-02-11T05:09:03.108Z,19.50
2023-02-11T05:11:30.624Z,19.23
2023-02-11T05:13:58.035Z,16.77
2023-02-11T05:16:25.450Z,16.60
2023-02-11T05:18:53.820Z,15.30
2023-02-11T05:21:21.267Z,16.30
2023-02-11T05:23:48.509Z,15.63
2023-02-11T05:26:15.819Z,15.33
2023-02-11T05:28:43.594Z,17.47
2023-02-11T05:31:11.280Z,17.80
2023-02-11T05:33:38.854Z,15.67
2023-02-11T05:36:08.497Z,16.27
2023-02-11T05:38:36.204Z,24.70
2023-02-11T05:41:04.027Z,23.93
2023-02-11T05:43:31.510Z,21.10
2023-02-11T05:45:59.015Z,20.83
2023-02-11T05:48:26.378Z,20.97
2023-02-11T05:50:53.737Z,20.27
2023-02-11T05:53:21.092Z,18.37
2023-02-11T05:55:48.511Z,19.20
2023-02-11T05:58:15.981Z,20.40
2023-02-11T06:00:43.272Z,19.10
2023-02-11T06:03:10.737Z,19.93
2023-02-11T06:05:38.093Z,19.70
2023-02-11T06:08:05.608Z,20.77
2023-02-11T06:10:32.885Z,20.93
2023-02-11T06:13:00.529Z,21.83
2023-02-11T06:15:27.802Z,20.17
2023-02-11T06:17:55.119Z,22.60
2023-02-11T06:20:22.492Z,21.10
2023-02-11T06:22:49.727Z,18.53
2023-02-11T06:25:17.295Z,16.37
2023-02-11T06:27:44.613Z,16.20
2023-02-11T06:30:13.465Z,17.03
2023-02-11T06:32:45.482Z,15.63
2023-02-11T06:35:13.900Z,16.37
2023-02-11T06:37:42.254Z,16.57
2023-02-11T06:40:10.169Z,15.83
2023-02-11T06:42:39.260Z,16.30
2023-02-11T06:45:09.104Z,16.20
2023-02-11T06:47:36.481Z,15.47
2023-02-11T06:50:04.431Z,16.17
2023-02-11T06:52:31.948Z,16.37
2023-02-11T06:54:59.283Z,20.47
2023-02-11T06:57:26.587Z,24.73
2023-02-11T06:59:53.881Z,26.83
2023-02-11T07:02:21.428Z,34.23
2023-02-11T07:04:48.870Z,34.47
2023-02-11T07:07:16.487Z,32.80
2023-02-11T07:09:43.766Z,27.53
2023-02-11T07:12:11.663Z,25.87
2023-02-11T07:14:39.102Z,20.07
2023-02-11T07:17:06.398Z,17.63
2023-02-11T07:19:33.747Z,18.33
2023-02-11T07:22:01.029Z,15.43
2023-02-11T07:24:28.450Z,16.17
2023-02-11T07:26:55.673Z,16.37
2023-02-11T07:29:23.024Z,18.57
2023-02-11T07:31:50.543Z,28.63
2023-02-11T07:34:17.842Z,29.13
2023-02-11T07:36:45.266Z,27.20
2023-02-11T07:39:12.904Z,19.53
2023-02-11T07:41:40.200Z,15.63
2023-02-11T07:44:07.926Z,16.00
2023-02-11T07:46:35.836Z,14.93
2023-02-11T07:49:03.201Z,17.97
2023-02-11T07:51:31.233Z,17.27
2023-02-11T07:53:59.273Z,16.73
2023-02-11T07:56:26.684Z,15.37
2023-02-11T07:58:54.313Z,14.87
2023-02-11T08:01:25.312Z,16.23
2023-02-11T08:03:52.846Z,20.13
2023-02-11T08:06:21.107Z,13.93
2023-02-11T08:08:48.458Z,13.30
2023-02-11T08:11:16.966Z,13.43
2023-02-11T08:13:44.644Z,15.73
2023-02-11T08:16:22.965Z,19.30
2023-02-11T08:18:51.187Z,18.20
2023-02-11T08:21:18.859Z,13.47
2023-02-11T08:23:46.800Z,13.03
2023-02-11T08:26:15.820Z,14.83
2023-02-11T08:28:43.823Z,12.73
2023-02-11T08:31:12.612Z,11.77
2023-02-11T08:33:43.160Z,12.37
2023-02-11T08:36:11.947Z,12.63
2023-02-11T08:38:40.700Z,13.00
2023-02-11T08:41:08.010Z,12.13
2023-02-11T08:43:35.704Z,11.90
2023-02-11T08:46:03.186Z,13.07
2023-02-11T08:48:31.576Z,14.33
2023-02-11T08:50:58.928Z,11.70
2023-02-11T08:53:27.754Z,10.33
2023-02-11T08:55:56.285Z,10.50
2023-02-11T08:58:23.620Z,10.77
2023-02-11T09:00:51.414Z,10.47
2023-02-11T09:03:19.088Z,11.13
2023-02-11T09:05:47.616Z,8.97
2023-02-11T09:08:15.701Z,8.57
2023-02-11T09:10:43.468Z,9.37
2023-02-11T09:13:11.111Z,10.17
2023-02-11T09:15:38.341Z,10.67
2023-02-11T09:18:06.545Z,10.07
2023-02-11T09:20:34.239Z,10.17
2023-02-11T09:23:01.622Z,9.40
2023-02-11T09:25:28.925Z,9.87
2023-02-11T09:27:56.601Z,9.17
2023-02-11T09:30:24.018Z,9.50
2023-02-11T09:32:51.331Z,10.23
2023-02-11T09:35:18.633Z,8.60
2023-02-11T09:37:46.137Z,8.40
2023-02-11T09:40:13.883Z,7.87
2023-02-11T09:42:45.245Z,8.27
2023-02-11T09:45:21.472Z,8.47
2023-02-11T09:47:57.313Z,8.27
2023-02-11T09:50:33.361Z,9.23
2023-02-11T09:53:03.728Z,8.27
2023-02-11T09:55:31.168Z,7.90
2023-02-11T09:57:59.333Z,7.17
2023-02-11T10:00:34.390Z,6.40
2023-02-11T10:03:01.784Z,7.10
2023-02-11T10:05:35.075Z,6.90
2023-02-11T10:08:10.198Z,6.57
2023-02-11T10:10:54.887Z,7.03
2023-02-11T10:13:30.048Z,6.80
2023-02-11T10:16:06.340Z,7.23
2023-02-11T10:18:52.732Z,6.77
2023-02-11T10:21:31.479Z,7.20
2023-02-11T10:24:02.724Z,6.47
2023-02-11T10:26:31.541Z,6.43
2023-02-11T10:29:02.200Z,7.00
2023-02-11T10:31:40.609Z,7.00
2023-02-11T10:34:10.234Z,7.93
2023-02-11T10:36:38.998Z,7.40
2023-02-11T10:39:12.511Z,7.13
2023-02-11T10:41:42.511Z,6.67
2023-02-11T10:44:14.171Z,5.70
2023-02-11T10:46:41.715Z,6.37
2023-02-11T10:49:09.111Z,6.00
2023-02-11T10:51:37.960Z,5.43
2023-02-11T10:54:05.409Z,5.10
2023-02-11T10:56:36.570Z,5.47
2023-02-11T10:59:15.351Z,5.30
2023-02-11T11:01:57.823Z,5.10
2023-02-11T11:04:35.025Z,5.13
2023-02-11T11:07:22.430Z,4.50
2023-02-11T11:09:55.054Z,4.60
2023-02-11T11:12:27.492Z,5.13
2023-02-11T11:14:56.594Z,4.10
2023-02-11T11:17:24.063Z,4.27
2023-02-11T11:19:54.715Z,4.43
2023-02-11T11:22:23.081Z,4.63
2023-02-11T11:24:55.571Z,4.47
2023-02-11T11:27:24.914Z,4.70
2023-02-11T11:29:56.575Z,4.57
2023-02-11T11:32:29.732Z,4.03
2023-02-11T11:35:00.922Z,4.33
2023-02-11T11:37:30.170Z,4.20
2023-02-11T11:40:03.049Z,4.43
2023-02-11T11:42:33.156Z,5.03
2023-02-11T11:45:23.464Z,4.47
2023-02-11T11:47:57.229Z,4.67
2023-02-11T11:50:31.978Z,4.80
2023-02-11T11:53:07.826Z,4.50
2023-02-11T11:55:38.676Z,4.57
2023-02-11T11:58:07.037Z,4.70
2023-02-11T12:00:44.959Z,4.57
2023-02-11T12:03:24.328Z,4.57
2023-02-11T12:06:14.634Z,4.33
2023-02-11T12:09:00.747Z,4.50
2023-02-11T12:11:47.142Z,4.60
2023-02-11T12:14:26.849Z,4.50
2023-02-11T12:16:58.787Z,4.60
2023-02-11T12:19:40.586Z,4.73
2023-02-11T12:22:22.819Z,4.20
2023-02-11T12:24:57.608Z,3.90
2023-02-11T12:27:33.886Z,3.57
2023-02-11T12:30:27.965Z,3.00
2023-02-11T12:33:07.845Z,2.40
2023-02-11T12:36:04.442Z,2.28
2023-02-11T12:38:50.377Z,2.13
2023-02-11T12:41:55.509Z,7.27
2023-02-11T12:44:30.722Z,5.97
2023-02-11T12:47:27.224Z,5.20
2023-02-11T12:50:01.505Z,2.40
2023-02-11T12:52:44.028Z,2.50
2023-02-11T12:55:23.422Z,2.17
2023-02-11T12:57:51.617Z,2.20
2023-02-11T13:00:26.521Z,2.30
2023-02-11T13:03:06.586Z,2.83
2023-02-11T13:05:45.946Z,2.70
2023-02-11T13:08:13.171Z,4.10
2023-02-11T13:10:46.916Z,4.70
2023-02-11T13:13:25.496Z,4.63
2023-02-11T13:15:56.936Z,5.37
2023-02-11T13:18:30.504Z,5.10
2023-02-11T13:21:16.475Z,4.87
2023-02-11T13:23:57.953Z,5.43
2023-02-11T13:26:43.786Z,4.47
2023-02-11T13:29:34.622Z,3.60
2023-02-11T13:32:09.818Z,3.00
2023-02-11T13:34:43.316Z,3.03
2023-02-11T13:37:21.827Z,3.13
2023-02-11T13:39:58.559Z,3.33
2023-02-11T13:42:26.159Z,3.70
2023-02-11T13:44:53.806Z,4.10
2023-02-11T13:47:30.752Z,4.10
2023-02-11T13:49:58.941Z,3.70
2023-02-11T13:52:34.041Z,4.13
2023-02-11T13:55:22.331Z,4.60
2023-02-11T13:58:12.862Z,4.50
2023-02-11T14:00:40.396Z,4.27
2023-02-11T14:03:32.647Z,4.33
2023-02-11T14:06:27.730Z,4.40
2023-02-11T14:09:30.564Z,4.80
2023-02-11T14:12:30.334Z,4.07
2023-02-11T14:15:06.699Z,4.77
2023-02-11T14:17:35.530Z,4.20
2023-02-11T14:20:04.879Z,6.40
2023-02-11T14:22:42.255Z,6.80
2023-02-11T14:25:38.962Z,8.37
2023-02-11T14:28:16.851Z,9.57
2023-02-11T14:30:51.745Z,9.70
2023-02-11T14:33:28.600Z,10.40
2023-02-11T14:36:09.453Z,10.90
2023-02-11T14:38:49.337Z,11.03
2023-02-11T14:41:20.024Z,11.10
2023-02-11T14:43:52.188Z,11.10
2023-02-11T14:46:20.305Z,11.50
2023-02-11T14:48:49.399Z,11.77
2023-02-11T14:51:20.240Z,12.27
2023-02-11T14:53:49.012Z,12.23
2023-02-11T14:56:26.655Z,12.90
2023-02-11T14:58:55.022Z,10.80
2023-02-11T15:01:34.240Z,11.83
2023-02-11T15:04:02.832Z,12.10
2023-02-11T15:06:35.015Z,11.93
2023-02-11T15:09:07.219Z,11.43
2023-02-11T15:11:40.193Z,12.40
2023-02-11T15:14:13.278Z,10.97
2023-02-11T15:16:45.908Z,10.57
2023-02-11T15:19:22.602Z,11.00
2023-02-11T15:21:50.964Z,11.77
2023-02-11T15:24:27.289Z,11.23
2023-02-11T15:27:25.928Z,9.80
2023-02-11T15:29:53.534Z,10.13
2023-02-11T15:32:22.311Z,10.43
2023-02-11T15:34:51.083Z,10.80
2023-02-11T15:37:23.435Z,10.23
2023-02-11T15:39:51.968Z,10.03
2023-02-11T15:42:24.342Z,10.20
2023-02-11T15:45:09.009Z,9.40
2023-02-11T15:47:36.585Z,9.33
2023-02-11T15:50:04.252Z,10.00
2023-02-11T15:52:32.467Z,9.13
2023-02-11T15:55:01.777Z,8.63
2023-02-11T15:57:29.416Z,9.57
2023-02-11T15:59:57.478Z,9.20
2023-02-11T16:02:36.509Z,8.43
2023-02-11T16:05:08.772Z,9.13
2023-02-11T16:07:39.855Z,8.63
2023-02-11T16:10:19.631Z,8.90
2023-02-11T16:12:54.331Z,11.67
2023-02-11T16:15:40.355Z,28.20
2023-02-11T16:18:36.743Z,32.23
2023-02-11T16:21:05.967Z,27.23
2023-02-11T16:23:35.172Z,49.03
2023-02-11T16:26:09.052Z,20.43
2023-02-11T16:28:37.501Z,15.53
2023-02-11T16:31:05.372Z,14.20
2023-02-11T16:33:33.069Z,13.07
2023-02-11T16:36:02.242Z,10.27
2023-02-11T16:38:30.477Z,8.67
2023-02-11T16:40:58.171Z,8.40
2023-02-11T16:43:25.520Z,8.40
2023-02-11T16:45:52.976Z,8.37
2023-02-11T16:48:20.989Z,8.37
2023-02-11T16:50:52.880Z,9.07
2023-02-11T16:53:25.068Z,8.43
2023-02-11T16:55:53.640Z,9.13
2023-02-11T16:58:21.290Z,8.97
2023-02-11T17:00:49.227Z,8.27
2023-02-11T17:03:24.167Z,9.20
2023-02-11T17:05:55.675Z,8.33
2023-02-11T17:08:23.355Z,8.93
2023-02-11T17:10:50.923Z,9.67
2023-02-11T17:13:18.367Z,10.23
2023-02-11T17:15:45.753Z,9.63
2023-02-11T17:18:14.633Z,9.47
2023-02-11T17:20:42.475Z,9.17
2023-02-11T17:23:09.821Z,9.50
2023-02-11T17:25:37.465Z,9.03
2023-02-11T17:28:05.554Z,10.63
2023-02-11T17:30:33.081Z,10.90
2023-02-11T17:33:00.353Z,15.27
2023-02-11T17:35:27.710Z,13.10
2023-02-11T17:37:55.106Z,12.30
2023-02-11T17:40:22.582Z,19.27
2023-02-11T17:42:50.958Z,20.27
2023-02-11T17:45:19.869Z,16.80
2023-02-11T17:47:49.755Z,18.67
2023-02-11T17:50:17.119Z,17.17
2023-02-11T17:52:44.852Z,16.10
2023-02-11T17:55:13.112Z,16.63
2023-02-11T17:57:41.321Z,14.47
2023-02-11T18:00:09.605Z,12.77
2023-02-11T18:02:37.589Z,13.83
2023-02-11T18:05:05.883Z,14.23
2023-02-11T18:07:33.987Z,13.13
2023-02-11T18:10:01.310Z,13.80
2023-02-11T18:12:35.073Z,13.27
2023-02-11T18:15:03.037Z,12.60
2023-02-11T18:17:30.864Z,15.03
2023-02-11T18:19:58.531Z,15.70
2023-02-11T18:22:26.351Z,17.97
2023-02-11T18:24:54.256Z,17.23
2023-02-11T18:27:22.527Z,20.30
2023-02-11T18:29:49.951Z,18.53
2023-02-11T18:32:17.304Z,17.87
2023-02-11T18:34:44.752Z,19.07
2023-02-11T18:37:13.484Z,18.70
2023-02-11T18:39:42.289Z,18.30
2023-02-11T18:42:10.068Z,18.27
2023-02-11T18:44:38.126Z,18.43
2023-02-11T18:47:05.758Z,21.43
2023-02-11T18:49:35.949Z,19.90
2023-02-11T18:52:05.441Z,20.57
2023-02-11T18:54:34.139Z,19.53
2023-02-11T18:57:02.204Z,19.50
2023-02-11T18:59:30.356Z,19.37
2023-02-11T19:01:57.754Z,19.00
2023-02-11T19:04:25.233Z,19.73
2023-02-11T19:06:52.745Z,20.10
2023-02-11T19:09:20.817Z,19.60
2023-02-11T19:11:49.858Z,20.77
2023-02-11T19:14:22.325Z,20.50
2023-02-11T19:16:50.697Z,21.40
2023-02-11T19:19:18.948Z,24.00
2023-02-11T19:21:47.491Z,23.63
2023-02-11T19:24:16.250Z,23.57
2023-02-11T19:26:43.803Z,24.57
2023-02-11T19:29:11.149Z,24.23
2023-02-11T19:31:38.593Z,23.73
2023-02-11T19:34:07.676Z,24.30
2023-02-11T19:36:35.261Z,22.77
2023-02-11T19:39:03.166Z,21.87
2023-02-11T19:41:31.916Z,21.73
2023-02-11T19:43:59.177Z,20.97
2023-02-11T19:46:27.200Z,22.07
2023-02-11T19:48:55.802Z,23.13
2023-02-11T19:51:23.148Z,22.50
2023-02-11T19:53:51.353Z,23.10
2023-02-11T19:56:20.820Z,23.77
2023-02-11T19:58:48.296Z,24.57
2023-02-11T20:01:19.807Z,29.30
2023-02-11T20:03:52.458Z,25.93
2023-02-11T20:06:24.207Z,27.60
2023-02-11T20:08:58.294Z,27.40
2023-02-11T20:11:25.991Z,25.73
2023-02-11T20:13:53.278Z,27.13
2023-02-11T20:16:23.152Z,26.27
2023-02-11T20:18:52.016Z,26.90
2023-02-11T20:21:20.698Z,26.07
2023-02-11T20:23:48.940Z,24.63
2023-02-11T20:26:18.158Z,25.13
2023-02-11T20:28:46.322Z,25.43
2023-02-11T20:31:14.628Z,24.97
2023-02-11T20:33:42.715Z,24.03
2023-02-11T20:36:16.499Z,23.97
2023-02-11T20:38:44.224Z,23.93
2023-02-11T20:41:16.513Z,25.43
2023-02-11T20:43:48.021Z,27.77
2023-02-11T20:46:16.984Z,31.23
2023-02-11T20:48:44.929Z,31.83
2023-02-11T20:51:15.050Z,30.73
2023-02-11T20:53:48.363Z,30.70
2023-02-11T20:56:16.483Z,31.83
2023-02-11T20:58:44.090Z,30.50
2023-02-11T21:01:16.768Z,35.87
2023-02-11T21:03:44.884Z,39.40
2023-02-11T21:06:12.694Z,39.73
2023-02-11T21:08:40.165Z,35.47
2023-02-11T21:11:10.427Z,38.20
2023-02-11T21:13:38.579Z,59.17
2023-02-11T21:16:06.146Z,44.60
2023-02-11T21:18:33.612Z,39.77
2023-02-11T21:21:01.510Z,24.83
2023-02-11T21:23:29.282Z,24.47
2023-02-11T21:25:57.254Z,24.43
2023-02-11T21:28:28.171Z,24.80
2023-02-11T21:30:57.434Z,25.30
2023-02-11T21:33:25.528Z,23.77
2023-02-11T21:36:00.352Z,23.40
2023-02-11T21:38:28.190Z,29.73
2023-02-11T21:40:55.952Z,26.73
2023-02-11T21:43:23.751Z,25.70
2023-02-11T21:45:52.236Z,24.13
2023-02-11T21:48:20.572Z,21.30
2023-02-11T21:50:48.954Z,20.43
2023-02-11T21:53:16.634Z,20.70
2023-02-11T21:55:45.842Z,21.00
2023-02-11T21:58:14.424Z,19.57
2023-02-11T22:00:41.906Z,18.40
2023-02-11T22:03:09.360Z,19.03
2023-02-11T22:05:40.121Z,18.50
2023-02-11T22:08:07.762Z,17.70
2023-02-11T22:10:35.017Z,19.57
2023-02-11T22:13:02.346Z,19.97
2023-02-11T22:15:29.636Z,21.27
2023-02-11T22:17:56.944Z,21.77
2023-02-11T22:20:24.450Z,22.77
2023-02-11T22:22:51.851Z,25.70
2023-02-11T22:25:19.269Z,24.77
2023-02-11T22:27:48.125Z,27.00
2023-02-11T22:30:15.436Z,24.40
2023-02-11T22:32:42.737Z,21.03
2023-02-11T22:35:09.997Z,20.20
2023-02-11T22:37:37.486Z,20.07
2023-02-11T22:40:04.935Z,19.70
2023-02-11T22:42:32.277Z,21.50
2023-02-11T22:44:59.579Z,21.67
2023-02-11T22:47:27.011Z,21.60
2023-02-11T22:49:54.318Z,22.43
2023-02-11T22:52:23.469Z,21.53
2023-02-11T22:54:52.350Z,20.47
2023-02-11T22:57:19.695Z,21.33
2023-02-11T22:59:47.052Z,21.57
2023-02-11T23:02:14.616Z,20.13
2023-02-11T23:04:42.099Z,20.23
2023-02-11T23:07:09.544Z,19.67
2023-02-11T23:09:36.791Z,22.73
2023-02-11T23:12:04.263Z,18.90
2023-02-11T23:14:31.832Z,18.97
2023-02-11T23:16:59.296Z,20.57
2023-02-11T23:19:26.718Z,19.93
2023-02-11T23:21:53.969Z,19.90
2023-02-11T23:24:21.397Z,20.83
2023-02-11T23:26:48.775Z,20.43
2023-02-11T23:29:16.398Z,19.40
2023-02-11T23:31:46.676Z,21.10
2023-02-11T23:34:17.280Z,20.47
2023-02-11T23:36:45.213Z,21.77
2023-02-11T23:39:15.536Z,22.93
2023-02-11T23:41:42.921Z,18.50
2023-02-11T23:44:11.044Z,21.47
2023-02-11T23:46:38.562Z,27.93
2023-02-11T23:49:06.248Z,32.23
2023-02-11T23:51:34.127Z,35.07
2023-02-11T23:54:02.682Z,28.57
2023-02-11T23:56:31.065Z,29.03
2023-02-11T23:59:00.533Z,27.23
